Time;durP1;ratioP1;P1;durP2;ratioP2;P2;SDS_P1;SDS_P2;PMS_P1;PMS_P2;Temp;Humidity;BMP_temperature;BMP_pressure;BME280_temperature;BME280_humidity;BME280_pressure;Samples;Min_cycle;Max_cycle;Signal;HPM_P1;HPM_P2
2022/01/29 00:00:39;;;;;;;22.90;17.17;;;;;;;4.89;100.00;102752.75;2105890;28;20024;-71
2022/01/29 00:01:39;;;;;;;24.00;16.33;;;;;;;4.89;100.00;102743.28;2105915;28;20100;-69
2022/01/29 00:02:40;;;;;;;27.23;17.80;;;;;;;4.90;100.00;102755.38;2106473;28;20032;-70
2022/01/29 00:03:42;;;;;;;23.15;16.17;;;;;;;4.90;100.00;102750.19;2106455;28;20098;-70
2022/01/29 00:04:42;;;;;;;28.38;16.58;;;;;;;4.90;100.00;102737.25;2105868;28;20020;-70
2022/01/29 00:05:42;;;;;;;25.57;17.23;;;;;;;4.92;100.00;102746.78;2106070;28;20046;-70
2022/01/29 00:06:44;;;;;;;26.00;16.63;;;;;;;4.93;100.00;102743.34;2106598;28;20104;-71
2022/01/29 00:07:44;;;;;;;24.83;16.90;;;;;;;4.94;100.00;102745.06;2106628;28;20077;-72
2022/01/29 00:08:45;;;;;;;26.27;16.33;;;;;;;4.94;100.00;102734.72;2106481;28;20024;-68
2022/01/29 00:09:47;;;;;;;22.63;15.37;;;;;;;4.94;100.00;102732.13;2106675;28;20054;-69
2022/01/29 00:10:53;;;;;;;25.38;17.42;;;;;;;4.95;100.00;102733.84;2107614;28;20102;-69
2022/01/29 00:11:53;;;;;;;25.10;17.35;;;;;;;4.96;100.00;102730.44;2107656;28;20074;-68
2022/01/29 00:12:53;;;;;;;26.27;16.93;;;;;;;4.96;100.00;102722.69;2107522;28;20444;-68
2022/01/29 00:13:54;;;;;;;24.50;19.43;;;;;;;4.95;100.00;102720.91;2099100;28;20391;-68
2022/01/29 00:14:54;;;;;;;24.33;16.83;;;;;;;4.96;100.00;102714.91;2107544;28;20048;-70
2022/01/29 00:15:54;;;;;;;24.83;17.93;;;;;;;4.96;100.00;102717.50;2108239;28;20099;-70
2022/01/29 00:16:55;;;;;;;25.33;18.30;;;;;;;4.96;100.00;102712.31;2108205;28;20024;-69
2022/01/29 00:17:55;;;;;;;22.03;14.23;;;;;;;4.96;100.00;102718.34;2108158;28;20094;-71
2022/01/29 00:18:55;;;;;;;26.00;17.33;;;;;;;4.99;100.00;102712.34;2107568;28;20024;-68
2022/01/29 00:19:56;;;;;;;20.97;13.87;;;;;;;4.99;100.00;102712.34;2107498;28;20012;-70
2022/01/29 00:20:56;;;;;;;24.85;16.35;;;;;;;5.00;100.00;102714.09;2107452;28;20498;-70
2022/01/29 00:21:58;;;;;;;23.83;16.20;;;;;;;5.00;100.00;102708.91;2108182;28;20050;-70
2022/01/29 00:22:58;;;;;;;22.33;16.17;;;;;;;5.00;100.00;102714.09;2107429;28;20019;-67
2022/01/29 00:23:59;;;;;;;28.93;17.73;;;;;;;4.99;100.00;102708.03;2107366;28;20028;-68
2022/01/29 00:24:59;;;;;;;24.33;17.47;;;;;;;5.01;100.00;102710.66;2108130;28;20522;-70
2022/01/29 00:26:00;;;;;;;24.30;16.10;;;;;;;5.00;100.00;102712.34;2108154;28;20483;-69
2022/01/29 00:27:03;;;;;;;25.65;18.02;;;;;;;5.02;100.00;102696.84;2107336;28;20465;-69
2022/01/29 00:28:03;;;;;;;23.17;15.68;;;;;;;5.01;100.00;102700.28;2107444;28;20035;-71
2022/01/29 00:29:10;;;;;;;25.92;16.75;;;;;;;5.03;100.00;102703.75;2108014;28;20066;-72
2022/01/29 00:30:14;;;;;;;23.92;16.15;;;;;;;5.02;100.00;102702.03;2108038;28;20027;-70
2022/01/29 00:31:15;;;;;;;23.17;15.73;;;;;;;5.02;100.00;102702.03;2108045;28;20020;-69
2022/01/29 00:32:15;;;;;;;27.73;17.80;;;;;;;5.03;100.00;102708.94;2107995;28;20055;-69
2022/01/29 00:33:15;;;;;;;24.40;17.43;;;;;;;5.02;100.00;102694.25;2107976;28;20066;-70
2022/01/29 00:34:16;;;;;;;25.03;16.70;;;;;;;5.01;100.00;102696.00;2107956;28;20024;-69
2022/01/29 00:35:16;;;;;;;24.30;17.23;;;;;;;5.01;100.00;102696.00;2108000;28;20476;-69
2022/01/29 00:36:17;;;;;;;27.03;16.60;;;;;;;5.02;100.00;102692.56;2107317;28;20052;-71
2022/01/29 00:37:17;;;;;;;23.23;15.55;;;;;;;5.02;100.00;102695.13;2107516;28;20042;-70
2022/01/29 00:38:17;;;;;;;25.97;18.70;;;;;;;5.04;100.00;102695.16;2107955;28;20095;-68
2022/01/29 00:39:18;;;;;;;23.40;16.80;;;;;;;5.05;100.00;102688.25;2108020;28;20043;-70
2022/01/29 00:40:18;;;;;;;24.90;18.33;;;;;;;5.04;100.00;102684.81;2107966;28;20059;-71
2022/01/29 00:41:18;;;;;;;25.63;17.43;;;;;;;5.03;100.00;102683.03;2107280;28;20470;-71
2022/01/29 00:42:19;;;;;;;26.70;18.30;;;;;;;5.04;100.00;102687.41;2098893;28;20374;-69
2022/01/29 00:43:19;;;;;;;23.27;15.87;;;;;;;5.03;100.00;102683.94;2107175;28;20024;-70
2022/01/29 00:44:20;;;;;;;24.13;16.30;;;;;;;5.04;100.00;102684.81;2107935;28;20027;-69
2022/01/29 00:45:20;;;;;;;29.55;18.90;;;;;;;5.05;100.00;102685.66;2107865;28;20470;-69
2022/01/29 00:46:20;;;;;;;23.60;16.70;;;;;;;5.05;100.00;102686.53;2107905;28;20054;-70
2022/01/29 00:47:21;;;;;;;20.57;16.20;;;;;;;5.06;100.00;102684.81;2107857;28;20141;-68
2022/01/29 00:48:21;;;;;;;26.23;17.23;;;;;;;5.06;100.00;102682.25;2107872;28;20020;-69
2022/01/29 00:49:21;;;;;;;24.93;17.50;;;;;;;5.07;100.00;102684.84;2107879;28;20024;-68
2022/01/29 00:50:22;;;;;;;25.67;16.97;;;;;;;5.07;100.00;102684.84;2107157;28;20036;-69
2022/01/29 00:51:22;;;;;;;25.73;16.07;;;;;;;5.07;100.00;102684.84;2098904;28;20433;-70
2022/01/29 00:52:22;;;;;;;22.17;16.37;;;;;;;5.07;100.00;102682.25;2107202;28;20027;-70
2022/01/29 00:53:22;;;;;;;24.63;16.13;;;;;;;5.06;100.00;102683.09;2107934;28;20024;-70
2022/01/29 00:54:23;;;;;;;25.30;16.13;;;;;;;5.07;100.00;102682.25;2107879;28;20030;-69
2022/01/29 00:55:23;;;;;;;24.67;16.20;;;;;;;5.08;100.00;102681.41;2107814;28;20424;-69
2022/01/29 00:56:23;;;;;;;25.57;17.63;;;;;;;5.07;100.00;102682.25;2106953;28;20046;-70
2022/01/29 00:57:28;;;;;;;24.47;15.43;;;;;;;5.08;100.00;102668.47;2098713;28;20027;-71
2022/01/29 00:58:28;;;;;;;25.88;17.08;;;;;;;5.09;100.00;102667.59;2107167;28;20089;-70
2022/01/29 00:59:28;;;;;;;24.90;16.80;;;;;;;5.09;100.00;102665.00;2107188;28;20159;-70
2022/01/29 01:00:28;;;;;;;22.07;15.77;;;;;;;5.09;100.00;102671.91;2107208;28;20032;-69
2022/01/29 01:01:31;;;;;;;23.57;16.97;;;;;;;5.11;100.00;102668.50;2107751;28;20035;-69
2022/01/29 01:02:31;;;;;;;27.58;17.90;;;;;;;5.12;100.00;102661.56;2107649;28;20453;-70
2022/01/29 01:03:31;;;;;;;26.13;16.83;;;;;;;5.13;100.00;102664.19;2107626;28;20077;-68
2022/01/29 01:04:32;;;;;;;26.93;18.17;;;;;;;5.13;100.00;102664.19;2107700;28;20412;-68
2022/01/29 01:05:32;;;;;;;24.17;18.13;;;;;;;5.13;100.00;102659.00;2107773;28;20461;-70
2022/01/29 01:06:33;;;;;;;26.95;16.55;;;;;;;5.12;100.00;102662.47;2107116;28;20081;-69
2022/01/29 01:07:33;;;;;;;23.98;16.17;;;;;;;5.14;100.00;102660.72;2107135;28;20020;-69
2022/01/29 01:08:33;;;;;;;25.03;16.00;;;;;;;5.14;100.00;102660.72;2107129;28;20016;-69
2022/01/29 01:09:34;;;;;;;25.10;16.90;;;;;;;5.14;100.00;102658.16;2107610;28;20055;-69
2022/01/29 01:10:34;;;;;;;24.92;16.83;;;;;;;5.13;100.00;102653.84;2107621;28;20441;-70
2022/01/29 01:11:35;;;;;;;27.27;16.20;;;;;;;5.12;100.00;102652.09;2107734;28;20024;-68
2022/01/29 01:12:35;;;;;;;25.50;15.83;;;;;;;5.12;100.00;102657.28;2107802;28;20024;-71
2022/01/29 01:13:36;;;;;;;23.38;16.75;;;;;;;5.11;100.00;102655.56;2107015;28;20062;-71
2022/01/29 01:14:36;;;;;;;25.37;16.03;;;;;;;5.11;100.00;102644.31;2107065;28;20028;-71
2022/01/29 01:15:37;;;;;;;25.92;18.77;;;;;;;5.10;100.00;102642.59;2107685;28;20334;-70
2022/01/29 01:16:37;;;;;;;25.57;16.33;;;;;;;5.10;100.00;102633.09;2107615;28;20020;-69
2022/01/29 01:17:37;;;;;;;26.47;15.63;;;;;;;5.09;100.00;102636.53;2106968;28;20028;-70
2022/01/29 01:18:37;;;;;;;23.97;16.40;;;;;;;5.07;100.00;102638.25;2107022;28;20035;-68
2022/01/29 01:19:38;;;;;;;19.73;15.67;;;;;;;5.07;100.00;102630.50;2107622;28;20039;-70
2022/01/29 01:20:38;;;;;;;24.13;15.63;;;;;;;5.07;100.00;102622.72;2107725;28;20370;-69
2022/01/29 01:21:38;;;;;;;21.73;15.33;;;;;;;5.08;100.00;102629.63;2106317;28;20538;-69
2022/01/29 01:22:38;;;;;;;22.60;15.80;;;;;;;5.08;100.00;102618.41;2106907;28;20130;-71
2022/01/29 01:23:39;;;;;;;23.70;16.40;;;;;;;5.07;100.00;102622.72;2106992;28;20039;-71
2022/01/29 01:24:39;;;;;;;22.57;15.40;;;;;;;5.08;100.00;102614.09;2107535;28;20103;-70
2022/01/29 01:25:40;;;;;;;25.03;16.80;;;;;;;5.08;100.00;102619.28;2107574;28;20054;-69
2022/01/29 01:26:42;;;;;;;23.00;16.33;;;;;;;5.08;100.00;102614.09;2107563;28;20451;-69
2022/01/29 01:27:42;;;;;;;21.13;15.90;;;;;;;5.09;100.00;102617.53;2106898;28;20520;-69
2022/01/29 01:28:43;;;;;;;22.63;15.87;;;;;;;5.07;100.00;102609.78;2106981;28;20027;-67
2022/01/29 01:29:43;;;;;;;24.17;16.43;;;;;;;5.07;100.00;102611.50;2106808;28;20027;-68
2022/01/29 01:30:44;;;;;;;23.42;17.05;;;;;;;5.06;100.00;102592.50;2106996;28;20040;-71
2022/01/29 01:31:45;;;;;;;23.38;15.80;;;;;;;5.05;100.00;102593.38;2107476;28;20012;-69
2022/01/29 01:32:46;;;;;;;22.30;15.73;;;;;;;5.05;100.00;102592.50;2107555;28;20020;-72
2022/01/29 01:33:47;;;;;;;24.80;17.20;;;;;;;5.04;100.00;102596.81;2107478;28;20020;-69
2022/01/29 01:34:52;;;;;;;26.65;17.25;;;;;;;5.03;100.00;102595.06;2106851;28;20428;-69
2022/01/29 01:35:57;;;;;;;22.83;15.52;;;;;;;5.02;100.00;102590.75;2106960;28;20031;-70
2022/01/29 01:37:03;;;;;;;22.55;15.88;;;;;;;5.01;100.00;102596.78;2106832;28;20024;-70
2022/01/29 01:38:18;;;;;;;23.23;16.67;;;;;;;5.00;100.00;102587.28;2106911;28;20032;-70
2022/01/29 01:39:22;;;;;;;21.30;15.85;;;;;;;4.99;100.00;102594.19;2107475;28;20069;-69
2022/01/29 01:40:24;;;;;;;21.80;15.55;;;;;;;5.00;100.00;102579.53;2106772;28;20049;-68
2022/01/29 01:41:26;;;;;;;21.70;15.85;;;;;;;5.00;100.00;102589.88;2106815;28;20402;-67
2022/01/29 01:42:27;;;;;;;22.83;14.73;;;;;;;4.99;100.00;102594.19;2106836;28;20028;-67
2022/01/29 01:43:28;;;;;;;23.88;15.80;;;;;;;4.99;100.00;102588.13;2107380;28;20107;-69
2022/01/29 01:44:45;;;;;;;23.63;16.67;;;;;;;4.99;100.00;102590.72;2107505;28;20097;-70
2022/01/29 01:45:46;;;;;;;20.27;14.60;;;;;;;4.99;100.00;102588.13;2107376;28;20028;-71
2022/01/29 01:46:46;;;;;;;21.15;13.32;;;;;;;4.98;100.00;102589.00;2107371;28;20020;-70
2022/01/29 01:47:47;;;;;;;22.40;16.13;;;;;;;4.98;100.00;102596.75;2107382;28;20028;-71
2022/01/29 01:48:47;;;;;;;29.17;15.80;;;;;;;4.97;100.00;102589.84;2107399;28;20373;-71
2022/01/29 01:49:47;;;;;;;27.50;16.70;;;;;;;4.97;100.00;102589.84;2107369;28;20028;-70
2022/01/29 01:50:48;;;;;;;21.27;14.80;;;;;;;4.96;100.00;102582.94;2107456;28;20024;-71
2022/01/29 01:51:48;;;;;;;24.07;15.73;;;;;;;4.95;100.00;102586.38;2107402;28;20020;-70
2022/01/29 01:52:50;;;;;;;21.83;14.83;;;;;;;4.96;100.00;102590.72;2106600;28;20024;-69
2022/01/29 01:53:50;;;;;;;21.55;14.48;;;;;;;4.95;100.00;102587.25;2106525;28;20115;-71
2022/01/29 01:54:50;;;;;;;25.90;14.80;;;;;;;4.93;100.00;102578.59;2106719;28;20035;-70
2022/01/29 01:55:51;;;;;;;20.50;14.30;;;;;;;4.94;100.00;102574.28;2106530;28;20031;-68
2022/01/29 01:56:51;;;;;;;22.67;14.17;;;;;;;4.93;100.00;102572.56;2106671;28;20095;-69
2022/01/29 01:57:52;;;;;;;18.67;13.97;;;;;;;4.93;100.00;102575.16;2107229;28;20485;-68
2022/01/29 01:58:55;;;;;;;;;;;;;;;4.93;100.00;102569.97;2107048;28;20411;-67
2022/01/29 01:59:55;;;;;;;19.80;14.23;;;;;;;4.92;100.00;102563.91;2109519;28;19908;-70
2022/01/29 02:00:55;;;;;;;21.63;12.40;;;;;;;4.91;100.00;102569.97;2107288;28;20016;-70
2022/01/29 02:01:56;;;;;;;25.63;15.27;;;;;;;4.90;100.00;102566.50;2107272;28;20027;-70
2022/01/29 02:02:57;;;;;;;20.42;14.52;;;;;;;4.88;100.00;102567.34;2107295;28;20016;-70
2022/01/29 02:03:57;;;;;;;22.30;14.90;;;;;;;4.86;100.00;102566.47;2107184;28;20085;-68
2022/01/29 02:04:57;;;;;;;19.23;15.30;;;;;;;4.84;100.00;102558.69;2106690;28;20110;-68
2022/01/29 02:05:59;;;;;;;18.97;13.17;;;;;;;4.83;100.00;102561.25;2106649;28;20548;-68
2022/01/29 02:07:01;;;;;;;19.58;12.57;;;;;;;4.81;100.00;102563.84;2107211;28;20491;-70
2022/01/29 02:08:03;;;;;;;17.70;13.18;;;;;;;4.80;100.00;102556.94;2107278;28;20525;-69
2022/01/29 02:09:03;;;;;;;;;;;;;;;4.81;100.00;102562.94;2107595;28;20024;-70
2022/01/29 02:10:08;;;;;;;18.00;11.95;;;;;;;4.81;100.00;102556.06;2107035;28;19911;-70
2022/01/29 02:11:09;;;;;;;19.30;14.13;;;;;;;4.79;100.00;102560.34;2106504;28;20487;-69
2022/01/29 02:12:11;;;;;;;20.77;13.63;;;;;;;4.79;100.00;102550.00;2106646;28;20024;-68
2022/01/29 02:13:11;;;;;;;20.30;14.68;;;;;;;4.80;100.00;102544.00;2107237;28;20028;-69
2022/01/29 02:14:12;;;;;;;18.27;13.33;;;;;;;4.80;100.00;102540.53;2107224;28;20019;-69
2022/01/29 02:15:13;;;;;;;19.90;13.50;;;;;;;4.80;100.00;102538.81;2107124;28;20273;-69
2022/01/29 02:16:13;;;;;;;19.13;13.10;;;;;;;4.81;100.00;102543.13;2107278;28;20023;-69
2022/01/29 02:17:14;;;;;;;17.43;13.57;;;;;;;4.83;100.00;102540.56;2107260;28;20099;-68
2022/01/29 02:18:15;;;;;;;17.23;12.18;;;;;;;4.83;100.00;102533.66;2107228;28;20016;-70
2022/01/29 02:19:15;;;;;;;;;;;;;;;4.84;100.00;102531.94;2107666;28;20038;-69
2022/01/29 02:20:18;;;;;;;18.00;11.73;;;;;;;4.84;100.00;102538.00;2107248;28;20395;-69
2022/01/29 02:21:19;;;;;;;20.58;13.68;;;;;;;4.85;100.00;102537.13;2106534;28;20028;-69
2022/01/29 02:22:20;;;;;;;17.75;11.82;;;;;;;4.85;100.00;102534.53;2106529;28;20023;-70
2022/01/29 02:23:20;;;;;;;16.50;12.03;;;;;;;4.86;100.00;102535.44;2107029;28;20097;-69
2022/01/29 02:24:20;;;;;;;18.07;13.17;;;;;;;4.85;100.00;102539.72;2107181;28;20032;-68
2022/01/29 02:25:41;;;;;;;17.87;13.03;;;;;;;4.85;100.00;102534.53;2107182;28;20031;-68
2022/01/29 02:26:41;;;;;;;15.05;10.38;;;;;;;4.85;100.00;102531.97;2107113;28;20055;-68
2022/01/29 02:27:42;;;;;;;19.08;12.23;;;;;;;4.84;100.00;102526.78;2107051;28;20530;-70
2022/01/29 02:28:42;;;;;;;17.80;11.93;;;;;;;4.85;100.00;102529.38;2107167;28;20020;-68
2022/01/29 02:29:44;;;;;;;16.70;11.63;;;;;;;4.85;100.00;102533.66;2107171;28;20108;-70
2022/01/29 02:30:47;;;;;;;15.43;11.18;;;;;;;4.85;100.00;102542.31;2106440;28;20114;-70
2022/01/29 02:31:50;;;;;;;19.70;12.70;;;;;;;4.85;100.00;102534.53;2106530;28;20016;-69
2022/01/29 02:32:50;;;;;;;17.77;13.65;;;;;;;4.85;100.00;102524.19;2106172;28;20020;-70
2022/01/29 02:33:51;;;;;;;17.83;12.20;;;;;;;4.86;100.00;102531.09;2106384;28;20020;-71
2022/01/29 02:34:51;;;;;;;15.37;12.17;;;;;;;4.85;100.00;102524.19;2106402;28;20024;-68
2022/01/29 02:35:53;;;;;;;20.17;12.83;;;;;;;4.86;100.00;102531.09;2107050;28;20031;-71
2022/01/29 02:36:54;;;;;;;18.88;12.45;;;;;;;4.87;100.00;102524.22;2107160;28;20053;-69
2022/01/29 02:37:56;;;;;;;15.52;11.88;;;;;;;4.88;100.00;102529.41;2107046;28;20020;-69
2022/01/29 02:38:56;;;;;;;15.90;11.03;;;;;;;4.88;100.00;102529.41;2106970;28;20052;-70
2022/01/29 02:39:56;;;;;;;15.83;10.33;;;;;;;4.89;100.00;102525.06;2107098;28;20029;-68
2022/01/29 02:41:02;;;;;;;16.03;10.83;;;;;;;4.88;100.00;102534.59;2106415;28;20580;-73
2022/01/29 02:42:03;;;;;;;14.80;11.35;;;;;;;4.92;100.00;102526.84;2098513;28;20493;-70
2022/01/29 02:43:17;;;;;;;15.25;10.27;;;;;;;4.95;100.00;102522.56;2097989;28;20032;-69
2022/01/29 02:44:21;;;;;;;14.27;10.55;;;;;;;4.95;100.00;102519.97;2106576;28;20413;-68
2022/01/29 02:45:22;;;;;;;16.42;12.40;;;;;;;4.96;100.00;102526.03;2106963;28;20378;-71
2022/01/29 02:46:42;;;;;;;14.32;11.90;;;;;;;4.95;100.00;102524.25;2106924;28;20026;-69
2022/01/29 02:47:42;;;;;;;16.13;11.75;;;;;;;4.96;100.00;102531.19;2106214;28;20374;-69
2022/01/29 02:48:42;;;;;;;14.33;10.90;;;;;;;4.96;100.00;102521.69;2106425;28;20019;-69
2022/01/29 02:49:43;;;;;;;14.40;10.65;;;;;;;4.98;100.00;102524.28;2107183;28;20035;-68
2022/01/29 02:50:43;;;;;;;16.33;12.10;;;;;;;4.98;100.00;102519.13;2107019;28;20481;-69
2022/01/29 02:51:57;;;;;;;15.63;11.50;;;;;;;4.99;100.00;102516.56;2107080;28;20016;-69
2022/01/29 02:52:57;;;;;;;15.82;9.98;;;;;;;5.00;100.00;102525.19;2107002;28;20028;-71
2022/01/29 02:53:58;;;;;;;16.37;12.10;;;;;;;5.00;100.00;102512.25;2106982;28;20400;-70
2022/01/29 02:54:58;;;;;;;16.63;12.53;;;;;;;5.03;100.00;102517.44;2106872;28;20111;-68
2022/01/29 02:55:59;;;;;;;15.18;10.75;;;;;;;5.03;100.00;102512.25;2105999;28;20066;-69
2022/01/29 02:56:59;;;;;;;18.05;12.02;;;;;;;5.03;100.00;102512.25;2106352;28;20070;-68
2022/01/29 02:58:00;;;;;;;16.60;11.73;;;;;;;5.02;100.00;102515.69;2106892;28;20072;-72
2022/01/29 02:59:01;;;;;;;17.85;12.60;;;;;;;5.00;100.00;102512.25;2106747;28;20047;-69
2022/01/29 03:00:01;;;;;;;15.90;11.90;;;;;;;4.99;100.00;102505.31;2106825;28;20031;-71
2022/01/29 03:01:06;;;;;;;19.02;13.88;;;;;;;4.98;100.00;102498.41;2106840;28;20027;-68
2022/01/29 03:02:06;;;;;;;14.77;11.70;;;;;;;4.97;100.00;102505.34;2106844;28;20027;-70
2022/01/29 03:03:07;;;;;;;14.60;11.20;;;;;;;4.97;100.00;102502.75;2106764;28;20055;-68
2022/01/29 03:04:08;;;;;;;16.17;11.70;;;;;;;4.98;100.00;102508.78;2106893;28;20066;-70
2022/01/29 03:05:08;;;;;;;15.65;11.98;;;;;;;4.99;100.00;102508.78;2106888;28;20032;-67
2022/01/29 03:06:10;;;;;;;14.98;10.18;;;;;;;5.01;100.00;102506.22;2106896;28;20486;-68
2022/01/29 03:07:10;;;;;;;;;;;;;;;5.06;100.00;102501.09;2107227;28;20104;-68
2022/01/29 03:08:10;;;;;;;14.23;9.85;;;;;;;5.06;100.00;102511.44;2106855;28;19961;-68
2022/01/29 03:09:11;;;;;;;14.93;11.00;;;;;;;5.05;100.00;102507.97;2106193;28;20439;-69
2022/01/29 03:10:11;;;;;;;13.87;10.57;;;;;;;5.05;100.00;102515.72;2106106;28;20122;-68
2022/01/29 03:11:12;;;;;;;16.50;11.90;;;;;;;5.04;100.00;102508.84;2106132;28;20111;-71
2022/01/29 03:12:12;;;;;;;17.47;12.37;;;;;;;5.04;100.00;102508.84;2106806;28;20286;-68
2022/01/29 03:13:13;;;;;;;16.43;11.70;;;;;;;5.02;100.00;102507.94;2106751;28;20063;-71
2022/01/29 03:14:13;;;;;;;17.88;12.82;;;;;;;5.01;100.00;102493.28;2106823;28;20031;-69
2022/01/29 03:15:14;;;;;;;15.60;11.83;;;;;;;5.00;100.00;102496.72;2106797;28;20052;-70
2022/01/29 03:16:15;;;;;;;16.17;11.60;;;;;;;4.99;100.00;102495.84;2106801;28;20016;-70
2022/01/29 03:17:15;;;;;;;18.88;12.52;;;;;;;5.00;100.00;102494.97;2106898;28;20528;-68
2022/01/29 03:18:15;;;;;;;17.10;10.93;;;;;;;5.01;100.00;102493.28;2106695;28;20110;-66
2022/01/29 03:19:16;;;;;;;17.33;12.23;;;;;;;5.01;100.00;102488.09;2106163;28;20036;-67
2022/01/29 03:20:16;;;;;;;14.77;11.27;;;;;;;5.00;100.00;102484.63;2097864;28;20127;-70
2022/01/29 03:21:16;;;;;;;15.10;11.83;;;;;;;5.00;100.00;102486.38;2106196;28;20035;-69
2022/01/29 03:22:17;;;;;;;17.67;12.70;;;;;;;4.98;100.00;102485.47;2106915;28;20051;-69
2022/01/29 03:23:17;;;;;;;14.80;9.93;;;;;;;4.98;100.00;102483.78;2106750;28;20488;-69
2022/01/29 03:24:17;;;;;;;16.20;11.50;;;;;;;4.98;100.00;102482.91;2106856;28;20461;-69
2022/01/29 03:25:18;;;;;;;16.73;10.77;;;;;;;4.96;100.00;102485.47;2106899;28;20028;-68
2022/01/29 03:26:18;;;;;;;16.23;12.43;;;;;;;4.97;100.00;102476.00;2106706;28;20032;-69
2022/01/29 03:27:18;;;;;;;15.80;12.07;;;;;;;4.96;100.00;102480.28;2106638;28;20099;-69
2022/01/29 03:28:18;;;;;;;16.57;11.60;;;;;;;4.97;100.00;102478.59;2106702;28;20038;-69
2022/01/29 03:29:19;;;;;;;17.43;11.60;;;;;;;4.97;100.00;102481.16;2106071;28;20028;-69
2022/01/29 03:30:19;;;;;;;17.13;12.00;;;;;;;4.98;100.00;102477.72;2106130;28;20509;-68
2022/01/29 03:31:20;;;;;;;16.50;11.57;;;;;;;5.00;100.00;102481.19;2106703;28;20028;-71
2022/01/29 03:32:20;;;;;;;17.20;11.57;;;;;;;4.99;100.00;102472.56;2106757;28;20020;-68
2022/01/29 03:33:22;;;;;;;17.00;10.10;;;;;;;5.00;100.00;102476.03;2106024;28;20028;-68
2022/01/29 03:34:22;;;;;;;15.88;10.80;;;;;;;5.01;100.00;102468.28;2106008;28;20290;-67
2022/01/29 03:35:22;;;;;;;21.10;13.00;;;;;;;4.99;100.00;102457.03;2106159;28;19948;-69
2022/01/29 03:36:23;;;;;;;16.70;10.90;;;;;;;5.01;100.00;102472.56;2106030;28;20535;-68
2022/01/29 03:37:23;;;;;;;;;;;;;;;5.01;100.00;102462.22;2106119;28;20027;-66
2022/01/29 03:38:24;;;;;;;18.57;11.33;;;;;;;5.02;100.00;102459.66;2106619;28;20035;-69
2022/01/29 03:39:26;;;;;;;14.00;9.40;;;;;;;5.03;100.00;102471.72;2106626;28;20500;-67
2022/01/29 03:40:28;;;;;;;16.08;10.77;;;;;;;5.03;100.00;102455.31;2106648;28;20473;-68
2022/01/29 03:41:29;;;;;;;15.00;10.10;;;;;;;5.03;100.00;102463.09;2106760;28;20465;-69
2022/01/29 03:42:34;;;;;;;16.05;10.00;;;;;;;5.05;100.00;102469.16;2106644;28;20047;-68
2022/01/29 03:43:42;;;;;;;15.80;10.55;;;;;;;5.06;100.00;102463.13;2105957;28;20176;-68
2022/01/29 03:44:42;;;;;;;14.50;9.50;;;;;;;5.06;100.00;102454.50;2106136;28;20244;-70
2022/01/29 03:45:43;;;;;;;16.50;10.30;;;;;;;5.06;100.00;102457.94;2107751;28;20067;-69
2022/01/29 03:46:43;;;;;;;;;;;;;;;5.07;100.00;102446.75;2099291;28;25051;-72
2022/01/29 03:47:43;;;;;;;12.50;9.30;;;;;;;5.08;100.00;102447.59;2107759;28;20103;-69
2022/01/29 03:48:44;;;;;;;15.67;11.07;;;;;;;5.09;100.00;102444.16;2108378;28;20036;-69
2022/01/29 03:49:44;;;;;;;14.53;9.87;;;;;;;5.09;100.00;102447.63;2107664;28;20066;-70
2022/01/29 03:50:44;;;;;;;18.07;12.67;;;;;;;5.10;100.00;102449.34;2107722;28;20024;-70
2022/01/29 03:51:44;;;;;;;17.93;10.77;;;;;;;5.11;100.00;102443.31;2108380;28;20016;-68
2022/01/29 03:52:45;;;;;;;12.53;11.00;;;;;;;5.12;100.00;102450.22;2108349;28;20382;-69
2022/01/29 03:53:46;;;;;;;16.53;11.60;;;;;;;5.14;100.00;102448.50;2108281;28;20016;-69
2022/01/29 03:54:46;;;;;;;;;;;;;;;5.15;100.00;102445.06;2108736;28;20024;-68
2022/01/29 03:55:47;;;;;;;15.88;10.18;;;;;;;5.15;100.00;102439.91;2107426;28;20281;-69
2022/01/29 03:56:47;;;;;;;16.35;11.48;;;;;;;5.17;100.00;102439.03;2107588;28;20581;-69
2022/01/29 03:57:47;;;;;;;16.97;11.53;;;;;;;5.18;100.00;102445.94;2107604;28;20020;-68
2022/01/29 03:58:48;;;;;;;17.63;11.03;;;;;;;5.19;100.00;102450.25;2107702;28;20024;-68
2022/01/29 03:59:48;;;;;;;14.83;11.57;;;;;;;5.18;100.00;102449.41;2108268;28;20052;-68
2022/01/29 04:00:48;;;;;;;17.30;11.43;;;;;;;5.21;100.00;102438.19;2108264;28;20024;-66
2022/01/29 04:01:48;;;;;;;13.50;9.13;;;;;;;5.23;100.00;102444.22;2108258;28;20027;-68
2022/01/29 04:02:49;;;;;;;12.20;9.30;;;;;;;5.25;100.00;102433.06;2108211;28;20032;-69
2022/01/29 04:03:49;;;;;;;13.33;8.43;;;;;;;5.25;100.00;102434.75;2107445;28;20101;-69
2022/01/29 04:04:49;;;;;;;12.83;10.73;;;;;;;5.25;100.00;102434.75;2107494;28;20020;-70
2022/01/29 04:05:50;;;;;;;13.63;9.97;;;;;;;5.25;100.00;102430.47;2107662;28;20389;-69
2022/01/29 04:06:51;;;;;;;15.80;11.77;;;;;;;5.27;100.00;102438.25;2107531;28;20477;-69
2022/01/29 04:07:51;;;;;;;11.98;8.77;;;;;;;5.27;100.00;102433.91;2107670;28;20024;-68
2022/01/29 04:08:51;;;;;;;12.93;9.87;;;;;;;5.30;100.00;102440.81;2108301;28;20505;-67
2022/01/29 04:09:53;;;;;;;13.38;9.68;;;;;;;5.32;100.00;102444.31;2108213;28;20414;-69
2022/01/29 04:10:54;;;;;;;12.90;9.80;;;;;;;5.32;100.00;102436.53;2108255;28;20024;-67
2022/01/29 04:11:54;;;;;;;13.10;9.57;;;;;;;5.34;100.00;102431.38;2108212;28;20118;-71
2022/01/29 04:12:55;;;;;;;11.93;8.43;;;;;;;5.35;100.00;102441.72;2108225;28;20030;-69
2022/01/29 04:13:56;;;;;;;15.02;9.30;;;;;;;5.36;100.00;102435.69;2108216;28;20020;-69
2022/01/29 04:14:58;;;;;;;13.03;10.03;;;;;;;5.37;100.00;102434.81;2107455;28;20417;-68
2022/01/29 04:15:58;;;;;;;12.55;9.18;;;;;;;5.40;100.00;102433.97;2107568;28;20015;-69
2022/01/29 04:16:58;;;;;;;11.93;8.57;;;;;;;5.42;100.00;102432.28;2108272;28;20481;-68
2022/01/29 04:17:59;;;;;;;12.17;9.37;;;;;;;5.44;100.00;102446.06;2108279;28;20036;-70
2022/01/29 04:18:59;;;;;;;14.67;10.07;;;;;;;5.44;100.00;102440.03;2107534;28;20087;-69
2022/01/29 04:19:59;;;;;;;11.70;8.73;;;;;;;5.45;100.00;102446.94;2107726;28;20422;-69
2022/01/29 04:21:00;;;;;;;14.87;10.70;;;;;;;5.46;100.00;102433.13;2108208;28;20073;-70
2022/01/29 04:22:04;;;;;;;14.68;9.38;;;;;;;5.47;100.00;102435.72;2108273;28;20027;-69
2022/01/29 04:23:06;;;;;;;12.07;9.55;;;;;;;5.47;100.00;102430.56;2107571;28;20028;-69
2022/01/29 04:24:07;;;;;;;11.73;8.50;;;;;;;5.48;100.00;102431.44;2099154;28;20044;-68
2022/01/29 04:25:08;;;;;;;10.15;8.05;;;;;;;5.48;100.00;102432.28;2099157;28;20029;-70
2022/01/29 04:26:08;;;;;;;14.07;8.98;;;;;;;5.48;100.00;102421.91;2107410;28;20027;-70
2022/01/29 04:27:16;;;;;;;11.60;8.90;;;;;;;5.50;100.00;102425.41;2107980;28;20085;-69
2022/01/29 04:28:16;;;;;;;11.77;9.68;;;;;;;5.52;100.00;102425.41;2107383;28;20072;-69
2022/01/29 04:29:17;;;;;;;14.73;9.90;;;;;;;5.53;100.00;102424.53;2107418;28;20090;-69
2022/01/29 04:30:31;;;;;;;11.82;8.52;;;;;;;5.53;100.00;102416.78;2107992;28;20020;-71
2022/01/29 04:33:51;;;;;;;9.55;7.55;;;;;;;5.56;100.00;102409.03;2107961;28;20385;-68
2022/01/29 04:34:52;;;;;;;12.87;9.33;;;;;;;5.56;100.00;102411.59;2107340;28;20135;-69
2022/01/29 04:35:52;;;;;;;10.77;8.93;;;;;;;5.56;100.00;102403.84;2107287;28;20024;-70
2022/01/29 04:36:52;;;;;;;11.53;9.00;;;;;;;5.56;100.00;102416.78;2107260;28;20509;-70
2022/01/29 04:37:53;;;;;;;11.00;8.63;;;;;;;5.57;100.00;102415.91;2107378;28;20038;-69
2022/01/29 04:38:53;;;;;;;12.10;8.93;;;;;;;5.57;100.00;102408.16;2107833;28;20103;-70
2022/01/29 04:39:53;;;;;;;12.63;9.57;;;;;;;5.58;100.00;102412.47;2108025;28;20045;-70
2022/01/29 04:40:55;;;;;;;12.30;9.10;;;;;;;5.61;100.00;102417.66;2108052;28;20107;-69
2022/01/29 04:41:56;;;;;;;12.20;9.13;;;;;;;5.62;100.00;102409.06;2107944;28;20036;-69